Weather at Sutherland Airport

Public forecast

Using degrees Celsius for public forecast. Weather courtesy of forecast.io.

Closest aviation weather report (METAR) to Sutherland Airport

Report is more than 6 hours old.

Closest report is Calvinia Airport, 77.2 nm (143.0 km) NW.

2023/03/21 10:55 (retrieved 11 hours ago)

FACV 211055Z 28003KT 9999 FEW040 21/08 Q1018

Closest aviation forecast (TAF) to Sutherland Airport

Closest forecast is George Airport, 124.2 nm (230.1 km) SE.

2023/03/21 18:00 (retrieved 4 hours ago)

TAF FAGG 211600Z 2118/2218 30005KT 9999 SCT008 BKN016 TX25/2212Z TN15/2204Z PROB40 TEMPO 2118/2205 BKN012 FM220600 30005KT 9999 SCT020 FM221100 13013KT 9999 SCT008 BKN020